sensor_id;sensor_type;location;lat;lon;timestamp;P1;durP1;ratioP1;P2;durP2;ratioP2
70576;SDS011;58138;43.138;24.702;2022-08-19T00:00:27;4.90;;;4.50;;
70576;SDS011;58138;43.138;24.702;2022-08-19T00:02:53;8.25;;;4.90;;
70576;SDS011;58138;43.138;24.702;2022-08-19T00:05:19;6.75;;;5.45;;
70576;SDS011;58138;43.138;24.702;2022-08-19T00:07:45;6.53;;;5.40;;
70576;SDS011;58138;43.138;24.702;2022-08-19T00:10:11;6.45;;;5.18;;
70576;SDS011;58138;43.138;24.702;2022-08-19T00:12:38;8.55;;;5.10;;
70576;SDS011;58138;43.138;24.702;2022-08-19T00:15:05;9.00;;;5.25;;
70576;SDS011;58138;43.138;24.702;2022-08-19T00:17:32;5.85;;;5.15;;
70576;SDS011;58138;43.138;24.702;2022-08-19T00:19:57;7.72;;;5.30;;
70576;SDS011;58138;43.138;24.702;2022-08-19T00:22:23;5.38;;;4.57;;
70576;SDS011;58138;43.138;24.702;2022-08-19T00:24:48;6.68;;;4.97;;
70576;SDS011;58138;43.138;24.702;2022-08-19T00:27:18;6.50;;;4.78;;
70576;SDS011;58138;43.138;24.702;2022-08-19T00:29:44;7.60;;;4.82;;
70576;SDS011;58138;43.138;24.702;2022-08-19T00:32:10;6.50;;;4.85;;
70576;SDS011;58138;43.138;24.702;2022-08-19T00:34:35;6.25;;;5.32;;
70576;SDS011;58138;43.138;24.702;2022-08-19T00:39:36;6.28;;;5.10;;
70576;SDS011;58138;43.138;24.702;2022-08-19T00:42:02;7.95;;;4.57;;
70576;SDS011;58138;43.138;24.702;2022-08-19T00:44:28;6.25;;;5.03;;
70576;SDS011;58138;43.138;24.702;2022-08-19T00:52:14;7.50;;;5.53;;
70576;SDS011;58138;43.138;24.702;2022-08-19T00:54:41;6.85;;;5.50;;
70576;SDS011;58138;43.138;24.702;2022-08-19T00:57:08;5.90;;;5.30;;
70576;SDS011;58138;43.138;24.702;2022-08-19T00:59:36;7.85;;;5.35;;
70576;SDS011;58138;43.138;24.702;2022-08-19T01:02:04;6.50;;;4.90;;
70576;SDS011;58138;43.138;24.702;2022-08-19T01:04:29;7.13;;;5.13;;
70576;SDS011;58138;43.138;24.702;2022-08-19T01:06:55;7.20;;;5.13;;
70576;SDS011;58138;43.138;24.702;2022-08-19T01:09:21;8.05;;;5.35;;
70576;SDS011;58138;43.138;24.702;2022-08-19T01:11:47;6.72;;;5.32;;
70576;SDS011;58138;43.138;24.702;2022-08-19T01:19:30;7.60;;;5.82;;
70576;SDS011;58138;43.138;24.702;2022-08-19T01:22:15;9.60;;;5.65;;
70576;SDS011;58138;43.138;24.702;2022-08-19T01:24:48;6.28;;;5.47;;
70576;SDS011;58138;43.138;24.702;2022-08-19T01:27:14;6.28;;;5.32;;
70576;SDS011;58138;43.138;24.702;2022-08-19T01:29:40;7.68;;;5.50;;
70576;SDS011;58138;43.138;24.702;2022-08-19T01:32:07;8.63;;;5.53;;
70576;SDS011;58138;43.138;24.702;2022-08-19T01:34:34;6.88;;;5.10;;
70576;SDS011;58138;43.138;24.702;2022-08-19T01:37:00;6.57;;;5.63;;
70576;SDS011;58138;43.138;24.702;2022-08-19T01:39:32;7.25;;;5.22;;
70576;SDS011;58138;43.138;24.702;2022-08-19T01:42:15;6.15;;;5.53;;
70576;SDS011;58138;43.138;24.702;2022-08-19T01:47:15;8.20;;;5.50;;
70576;SDS011;58138;43.138;24.702;2022-08-19T01:49:41;6.95;;;5.25;;
70576;SDS011;58138;43.138;24.702;2022-08-19T01:52:07;9.15;;;5.95;;
70576;SDS011;58138;43.138;24.702;2022-08-19T01:57:08;5.68;;;5.10;;
70576;SDS011;58138;43.138;24.702;2022-08-19T01:59:36;7.10;;;5.10;;
70576;SDS011;58138;43.138;24.702;2022-08-19T02:02:02;6.25;;;5.40;;
70576;SDS011;58138;43.138;24.702;2022-08-19T02:04:32;7.03;;;5.07;;
70576;SDS011;58138;43.138;24.702;2022-08-19T02:06:58;8.35;;;5.70;;
70576;SDS011;58138;43.138;24.702;2022-08-19T02:09:25;10.93;;;5.95;;
70576;SDS011;58138;43.138;24.702;2022-08-19T02:11:50;9.52;;;6.10;;
70576;SDS011;58138;43.138;24.702;2022-08-19T02:14:16;11.02;;;6.72;;
70576;SDS011;58138;43.138;24.702;2022-08-19T02:16:41;8.18;;;6.78;;
70576;SDS011;58138;43.138;24.702;2022-08-19T02:19:07;9.45;;;6.32;;
70576;SDS011;58138;43.138;24.702;2022-08-19T02:21:33;10.07;;;5.97;;
70576;SDS011;58138;43.138;24.702;2022-08-19T02:23:59;8.32;;;6.10;;
70576;SDS011;58138;43.138;24.702;2022-08-19T02:26:25;9.95;;;5.82;;
70576;SDS011;58138;43.138;24.702;2022-08-19T02:28:51;7.15;;;6.43;;
70576;SDS011;58138;43.138;24.702;2022-08-19T02:31:19;12.55;;;6.65;;
70576;SDS011;58138;43.138;24.702;2022-08-19T02:33:45;7.55;;;6.38;;
70576;SDS011;58138;43.138;24.702;2022-08-19T02:36:12;7.75;;;6.30;;
70576;SDS011;58138;43.138;24.702;2022-08-19T02:38:38;7.93;;;6.80;;
70576;SDS011;58138;43.138;24.702;2022-08-19T02:41:06;12.38;;;6.55;;
70576;SDS011;58138;43.138;24.702;2022-08-19T02:43:35;9.97;;;6.50;;
70576;SDS011;58138;43.138;24.702;2022-08-19T02:46:10;9.32;;;6.07;;
70576;SDS011;58138;43.138;24.702;2022-08-19T02:48:38;7.55;;;5.50;;
70576;SDS011;58138;43.138;24.702;2022-08-19T02:51:03;7.53;;;5.85;;
70576;SDS011;58138;43.138;24.702;2022-08-19T02:53:30;6.70;;;6.03;;
70576;SDS011;58138;43.138;24.702;2022-08-19T02:55:56;9.65;;;6.57;;
70576;SDS011;58138;43.138;24.702;2022-08-19T02:58:22;6.80;;;6.20;;
70576;SDS011;58138;43.138;24.702;2022-08-19T03:00:49;8.02;;;6.18;;
70576;SDS011;58138;43.138;24.702;2022-08-19T03:03:17;7.93;;;6.55;;
70576;SDS011;58138;43.138;24.702;2022-08-19T03:05:43;8.68;;;6.75;;
70576;SDS011;58138;43.138;24.702;2022-08-19T03:08:09;8.43;;;6.40;;
70576;SDS011;58138;43.138;24.702;2022-08-19T03:10:41;9.10;;;7.03;;
70576;SDS011;58138;43.138;24.702;2022-08-19T03:13:09;8.30;;;6.55;;
70576;SDS011;58138;43.138;24.702;2022-08-19T03:15:39;8.55;;;6.70;;
70576;SDS011;58138;43.138;24.702;2022-08-19T03:18:06;11.00;;;7.82;;
70576;SDS011;58138;43.138;24.702;2022-08-19T03:20:32;7.75;;;6.88;;
70576;SDS011;58138;43.138;24.702;2022-08-19T03:22:57;10.55;;;6.35;;
70576;SDS011;58138;43.138;24.702;2022-08-19T03:25:23;8.52;;;7.65;;
70576;SDS011;58138;43.138;24.702;2022-08-19T03:27:49;8.73;;;7.68;;
70576;SDS011;58138;43.138;24.702;2022-08-19T03:30:15;14.00;;;10.65;;
70576;SDS011;58138;43.138;24.702;2022-08-19T03:32:40;13.60;;;7.88;;
70576;SDS011;58138;43.138;24.702;2022-08-19T03:35:06;12.40;;;7.15;;
70576;SDS011;58138;43.138;24.702;2022-08-19T03:37:31;9.50;;;8.23;;
70576;SDS011;58138;43.138;24.702;2022-08-19T03:39:57;12.75;;;6.78;;
70576;SDS011;58138;43.138;24.702;2022-08-19T03:42:23;12.30;;;7.25;;
70576;SDS011;58138;43.138;24.702;2022-08-19T03:44:48;11.45;;;7.10;;
70576;SDS011;58138;43.138;24.702;2022-08-19T03:47:14;12.70;;;7.68;;
70576;SDS011;58138;43.138;24.702;2022-08-19T03:49:41;9.60;;;6.65;;
70576;SDS011;58138;43.138;24.702;2022-08-19T03:52:06;8.00;;;6.60;;
70576;SDS011;58138;43.138;24.702;2022-08-19T03:54:33;13.43;;;6.47;;
70576;SDS011;58138;43.138;24.702;2022-08-19T03:56:58;8.40;;;6.38;;
70576;SDS011;58138;43.138;24.702;2022-08-19T03:59:28;9.40;;;6.63;;
70576;SDS011;58138;43.138;24.702;2022-08-19T04:01:56;8.38;;;6.60;;
70576;SDS011;58138;43.138;24.702;2022-08-19T04:04:23;9.65;;;7.18;;
70576;SDS011;58138;43.138;24.702;2022-08-19T04:06:49;13.93;;;7.63;;
70576;SDS011;58138;43.138;24.702;2022-08-19T04:09:16;10.35;;;7.45;;
70576;SDS011;58138;43.138;24.702;2022-08-19T04:11:44;8.32;;;6.90;;
70576;SDS011;58138;43.138;24.702;2022-08-19T04:14:16;9.67;;;7.03;;
70576;SDS011;58138;43.138;24.702;2022-08-19T04:16:43;12.48;;;7.35;;
70576;SDS011;58138;43.138;24.702;2022-08-19T04:19:09;14.95;;;6.80;;
70576;SDS011;58138;43.138;24.702;2022-08-19T04:21:35;9.15;;;7.30;;
70576;SDS011;58138;43.138;24.702;2022-08-19T04:24:01;11.43;;;7.30;;
70576;SDS011;58138;43.138;24.702;2022-08-19T04:31:39;12.88;;;8.13;;
70576;SDS011;58138;43.138;24.702;2022-08-19T04:34:06;9.27;;;6.78;;
70576;SDS011;58138;43.138;24.702;2022-08-19T04:36:36;12.40;;;7.75;;
70576;SDS011;58138;43.138;24.702;2022-08-19T04:39:07;8.18;;;5.50;;
70576;SDS011;58138;43.138;24.702;2022-08-19T04:41:33;8.98;;;7.15;;
70576;SDS011;58138;43.138;24.702;2022-08-19T04:44:17;10.40;;;7.13;;
70576;SDS011;58138;43.138;24.702;2022-08-19T04:46:44;10.73;;;7.18;;
70576;SDS011;58138;43.138;24.702;2022-08-19T04:49:12;11.02;;;8.48;;
70576;SDS011;58138;43.138;24.702;2022-08-19T04:51:39;9.18;;;6.60;;
70576;SDS011;58138;43.138;24.702;2022-08-19T04:54:06;14.85;;;6.72;;
70576;SDS011;58138;43.138;24.702;2022-08-19T04:56:31;10.30;;;6.18;;
70576;SDS011;58138;43.138;24.702;2022-08-19T04:58:57;19.45;;;10.48;;
70576;SDS011;58138;43.138;24.702;2022-08-19T05:01:23;11.95;;;7.30;;
70576;SDS011;58138;43.138;24.702;2022-08-19T05:03:57;13.77;;;9.10;;
70576;SDS011;58138;43.138;24.702;2022-08-19T05:06:23;16.15;;;6.85;;
70576;SDS011;58138;43.138;24.702;2022-08-19T05:08:50;10.25;;;7.18;;
70576;SDS011;58138;43.138;24.702;2022-08-19T05:11:17;16.65;;;8.07;;
70576;SDS011;58138;43.138;24.702;2022-08-19T05:13:43;9.98;;;7.50;;
70576;SDS011;58138;43.138;24.702;2022-08-19T05:16:10;18.67;;;7.80;;
70576;SDS011;58138;43.138;24.702;2022-08-19T05:18:36;12.23;;;7.10;;
70576;SDS011;58138;43.138;24.702;2022-08-19T05:21:21;18.25;;;7.00;;
70576;SDS011;58138;43.138;24.702;2022-08-19T05:24:05;15.82;;;10.10;;
70576;SDS011;58138;43.138;24.702;2022-08-19T05:26:37;11.40;;;6.88;;
70576;SDS011;58138;43.138;24.702;2022-08-19T05:29:04;8.48;;;6.43;;
70576;SDS011;58138;43.138;24.702;2022-08-19T05:31:30;8.15;;;6.00;;
70576;SDS011;58138;43.138;24.702;2022-08-19T05:33:56;7.70;;;6.45;;
70576;SDS011;58138;43.138;24.702;2022-08-19T05:36:24;10.13;;;6.20;;
70576;SDS011;58138;43.138;24.702;2022-08-19T05:38:50;7.38;;;6.00;;
70576;SDS011;58138;43.138;24.702;2022-08-19T05:41:17;8.10;;;6.35;;
70576;SDS011;58138;43.138;24.702;2022-08-19T05:43:43;9.15;;;6.45;;
70576;SDS011;58138;43.138;24.702;2022-08-19T05:46:13;8.57;;;6.38;;
70576;SDS011;58138;43.138;24.702;2022-08-19T05:48:41;10.30;;;6.80;;
70576;SDS011;58138;43.138;24.702;2022-08-19T05:51:07;9.50;;;6.00;;
70576;SDS011;58138;43.138;24.702;2022-08-19T05:53:33;8.68;;;6.13;;
70576;SDS011;58138;43.138;24.702;2022-08-19T05:56:09;7.03;;;6.32;;
70576;SDS011;58138;43.138;24.702;2022-08-19T05:58:37;15.25;;;7.00;;
70576;SDS011;58138;43.138;24.702;2022-08-19T06:01:03;11.90;;;6.40;;
70576;SDS011;58138;43.138;24.702;2022-08-19T06:03:34;10.48;;;6.20;;
70576;SDS011;58138;43.138;24.702;2022-08-19T06:06:02;7.75;;;5.93;;
70576;SDS011;58138;43.138;24.702;2022-08-19T06:08:32;6.97;;;5.60;;
70576;SDS011;58138;43.138;24.702;2022-08-19T06:10:58;8.50;;;5.80;;
70576;SDS011;58138;43.138;24.702;2022-08-19T06:13:57;10.35;;;5.72;;
70576;SDS011;58138;43.138;24.702;2022-08-19T06:16:26;11.32;;;5.70;;
70576;SDS011;58138;43.138;24.702;2022-08-19T06:18:52;8.55;;;5.68;;
70576;SDS011;58138;43.138;24.702;2022-08-19T06:21:22;11.57;;;6.60;;
70576;SDS011;58138;43.138;24.702;2022-08-19T06:23:49;9.35;;;5.50;;
70576;SDS011;58138;43.138;24.702;2022-08-19T06:26:16;8.32;;;5.70;;
70576;SDS011;58138;43.138;24.702;2022-08-19T06:28:42;8.65;;;5.38;;
70576;SDS011;58138;43.138;24.702;2022-08-19T06:31:11;9.18;;;5.60;;
70576;SDS011;58138;43.138;24.702;2022-08-19T06:33:47;11.77;;;7.00;;
70576;SDS011;58138;43.138;24.702;2022-08-19T06:36:18;10.80;;;6.60;;
70576;SDS011;58138;43.138;24.702;2022-08-19T06:38:53;10.23;;;6.13;;
70576;SDS011;58138;43.138;24.702;2022-08-19T06:41:19;7.97;;;5.90;;
70576;SDS011;58138;43.138;24.702;2022-08-19T06:43:44;9.23;;;6.63;;
70576;SDS011;58138;43.138;24.702;2022-08-19T06:46:13;16.17;;;6.45;;
70576;SDS011;58138;43.138;24.702;2022-08-19T06:48:40;9.48;;;6.45;;
70576;SDS011;58138;43.138;24.702;2022-08-19T06:51:06;6.85;;;5.45;;
70576;SDS011;58138;43.138;24.702;2022-08-19T06:53:32;8.98;;;6.47;;
70576;SDS011;58138;43.138;24.702;2022-08-19T06:56:00;10.45;;;6.47;;
70576;SDS011;58138;43.138;24.702;2022-08-19T06:58:39;8.50;;;6.93;;
70576;SDS011;58138;43.138;24.702;2022-08-19T07:01:06;10.57;;;6.47;;
70576;SDS011;58138;43.138;24.702;2022-08-19T07:03:32;10.80;;;7.03;;
70576;SDS011;58138;43.138;24.702;2022-08-19T07:06:06;9.07;;;7.25;;
70576;SDS011;58138;43.138;24.702;2022-08-19T07:08:33;13.00;;;6.22;;
70576;SDS011;58138;43.138;24.702;2022-08-19T07:11:01;13.38;;;6.43;;
70576;SDS011;58138;43.138;24.702;2022-08-19T07:13:27;11.45;;;7.18;;
70576;SDS011;58138;43.138;24.702;2022-08-19T07:15:53;8.27;;;6.35;;
70576;SDS011;58138;43.138;24.702;2022-08-19T07:18:19;9.75;;;6.55;;
70576;SDS011;58138;43.138;24.702;2022-08-19T07:20:45;10.95;;;7.18;;
70576;SDS011;58138;43.138;24.702;2022-08-19T07:23:11;7.15;;;6.45;;
70576;SDS011;58138;43.138;24.702;2022-08-19T07:25:36;7.30;;;6.18;;
70576;SDS011;58138;43.138;24.702;2022-08-19T07:28:02;9.27;;;6.90;;
70576;SDS011;58138;43.138;24.702;2022-08-19T07:30:28;9.32;;;6.65;;
70576;SDS011;58138;43.138;24.702;2022-08-19T07:32:54;9.57;;;7.30;;
70576;SDS011;58138;43.138;24.702;2022-08-19T07:35:21;8.20;;;6.63;;
70576;SDS011;58138;43.138;24.702;2022-08-19T07:37:48;11.65;;;6.97;;
70576;SDS011;58138;43.138;24.702;2022-08-19T07:40:14;12.75;;;6.38;;
70576;SDS011;58138;43.138;24.702;2022-08-19T07:42:39;10.52;;;6.43;;
70576;SDS011;58138;43.138;24.702;2022-08-19T07:45:05;8.85;;;6.70;;
70576;SDS011;58138;43.138;24.702;2022-08-19T07:47:32;6.93;;;6.22;;
70576;SDS011;58138;43.138;24.702;2022-08-19T07:49:57;8.93;;;6.68;;
70576;SDS011;58138;43.138;24.702;2022-08-19T07:52:46;8.57;;;5.95;;
70576;SDS011;58138;43.138;24.702;2022-08-19T07:55:13;10.93;;;6.15;;
70576;SDS011;58138;43.138;24.702;2022-08-19T07:57:39;8.38;;;5.65;;
70576;SDS011;58138;43.138;24.702;2022-08-19T08:00:04;12.35;;;6.13;;
70576;SDS011;58138;43.138;24.702;2022-08-19T08:02:31;9.13;;;5.80;;
70576;SDS011;58138;43.138;24.702;2022-08-19T08:04:56;22.52;;;6.78;;
70576;SDS011;58138;43.138;24.702;2022-08-19T08:07:40;10.90;;;5.80;;
70576;SDS011;58138;43.138;24.702;2022-08-19T08:10:24;11.45;;;5.63;;
70576;SDS011;58138;43.138;24.702;2022-08-19T08:12:50;6.07;;;5.35;;
70576;SDS011;58138;43.138;24.702;2022-08-19T08:15:16;8.20;;;5.40;;
70576;SDS011;58138;43.138;24.702;2022-08-19T08:17:44;7.05;;;5.00;;
70576;SDS011;58138;43.138;24.702;2022-08-19T08:20:11;8.05;;;5.43;;
70576;SDS011;58138;43.138;24.702;2022-08-19T08:22:36;8.43;;;5.22;;
70576;SDS011;58138;43.138;24.702;2022-08-19T08:25:21;8.45;;;5.53;;
70576;SDS011;58138;43.138;24.702;2022-08-19T08:27:48;7.22;;;4.80;;
70576;SDS011;58138;43.138;24.702;2022-08-19T08:30:19;6.45;;;4.43;;
70576;SDS011;58138;43.138;24.702;2022-08-19T08:32:45;5.05;;;4.55;;
70576;SDS011;58138;43.138;24.702;2022-08-19T08:35:12;6.10;;;4.50;;
70576;SDS011;58138;43.138;24.702;2022-08-19T08:37:39;5.45;;;4.53;;
70576;SDS011;58138;43.138;24.702;2022-08-19T08:40:06;5.80;;;4.53;;
70576;SDS011;58138;43.138;24.702;2022-08-19T08:42:38;5.88;;;4.57;;
70576;SDS011;58138;43.138;24.702;2022-08-19T08:45:13;5.45;;;4.65;;
70576;SDS011;58138;43.138;24.702;2022-08-19T08:47:41;5.13;;;4.47;;
70576;SDS011;58138;43.138;24.702;2022-08-19T08:50:21;5.40;;;4.07;;
70576;SDS011;58138;43.138;24.702;2022-08-19T08:52:50;4.55;;;4.15;;
70576;SDS011;58138;43.138;24.702;2022-08-19T08:55:19;6.50;;;4.45;;
70576;SDS011;58138;43.138;24.702;2022-08-19T09:00:17;4.90;;;4.40;;
70576;SDS011;58138;43.138;24.702;2022-08-19T09:02:45;5.63;;;4.38;;
70576;SDS011;58138;43.138;24.702;2022-08-19T09:05:11;8.25;;;4.72;;
70576;SDS011;58138;43.138;24.702;2022-08-19T09:07:46;7.60;;;4.38;;
70576;SDS011;58138;43.138;24.702;2022-08-19T09:10:39;5.90;;;4.57;;
70576;SDS011;58138;43.138;24.702;2022-08-19T09:15:42;5.55;;;4.35;;
70576;SDS011;58138;43.138;24.702;2022-08-19T09:18:10;8.90;;;4.47;;
70576;SDS011;58138;43.138;24.702;2022-08-19T09:20:36;5.45;;;4.35;;
70576;SDS011;58138;43.138;24.702;2022-08-19T09:23:01;5.63;;;4.38;;
70576;SDS011;58138;43.138;24.702;2022-08-19T09:25:27;8.68;;;4.53;;
70576;SDS011;58138;43.138;24.702;2022-08-19T09:27:53;4.88;;;4.38;;
70576;SDS011;58138;43.138;24.702;2022-08-19T09:30:21;7.63;;;4.82;;
70576;SDS011;58138;43.138;24.702;2022-08-19T09:32:51;8.25;;;4.65;;
70576;SDS011;58138;43.138;24.702;2022-08-19T09:35:21;6.18;;;4.75;;
70576;SDS011;58138;43.138;24.702;2022-08-19T09:37:47;6.03;;;5.15;;
70576;SDS011;58138;43.138;24.702;2022-08-19T09:40:16;8.07;;;4.80;;
70576;SDS011;58138;43.138;24.702;2022-08-19T09:42:47;5.38;;;4.80;;
70576;SDS011;58138;43.138;24.702;2022-08-19T09:45:13;5.45;;;4.85;;
70576;SDS011;58138;43.138;24.702;2022-08-19T09:47:40;5.70;;;4.45;;
70576;SDS011;58138;43.138;24.702;2022-08-19T09:50:06;7.68;;;4.45;;
70576;SDS011;58138;43.138;24.702;2022-08-19T10:15:50;6.90;;;4.47;;
70576;SDS011;58138;43.138;24.702;2022-08-19T10:18:18;6.10;;;4.78;;
70576;SDS011;58138;43.138;24.702;2022-08-19T10:24:04;6.25;;;4.50;;
70576;SDS011;58138;43.138;24.702;2022-08-19T10:26:34;5.13;;;4.10;;
70576;SDS011;58138;43.138;24.702;2022-08-19T10:40:57;5.90;;;4.47;;
70576;SDS011;58138;43.138;24.702;2022-08-19T10:45:58;5.97;;;4.38;;
70576;SDS011;58138;43.138;24.702;2022-08-19T10:48:24;7.25;;;4.35;;
70576;SDS011;58138;43.138;24.702;2022-08-19T10:50:50;5.72;;;4.40;;
70576;SDS011;58138;43.138;24.702;2022-08-19T10:53:33;7.75;;;3.97;;
70576;SDS011;58138;43.138;24.702;2022-08-19T10:55:59;5.75;;;4.15;;
70576;SDS011;58138;43.138;24.702;2022-08-19T11:01:18;6.90;;;4.20;;
70576;SDS011;58138;43.138;24.702;2022-08-19T11:11:51;6.55;;;4.60;;
70576;SDS011;58138;43.138;24.702;2022-08-19T11:14:18;6.63;;;4.20;;
70576;SDS011;58138;43.138;24.702;2022-08-19T11:16:45;8.63;;;4.25;;
70576;SDS011;58138;43.138;24.702;2022-08-19T11:21:48;7.05;;;4.32;;
70576;SDS011;58138;43.138;24.702;2022-08-19T11:32:09;4.95;;;4.10;;
70576;SDS011;58138;43.138;24.702;2022-08-19T11:37:29;9.95;;;4.15;;
70576;SDS011;58138;43.138;24.702;2022-08-19T11:39:55;6.70;;;4.38;;
70576;SDS011;58138;43.138;24.702;2022-08-19T11:42:20;4.07;;;3.67;;
70576;SDS011;58138;43.138;24.702;2022-08-19T11:45:04;7.93;;;4.43;;
70576;SDS011;58138;43.138;24.702;2022-08-19T11:50:06;9.18;;;4.15;;
70576;SDS011;58138;43.138;24.702;2022-08-19T11:52:31;6.45;;;4.80;;
70576;SDS011;58138;43.138;24.702;2022-08-19T12:15:37;5.75;;;4.30;;
70576;SDS011;58138;43.138;24.702;2022-08-19T12:18:05;7.72;;;4.82;;
70576;SDS011;58138;43.138;24.702;2022-08-19T12:20:34;5.90;;;4.28;;
70576;SDS011;58138;43.138;24.702;2022-08-19T12:23:00;7.65;;;4.22;;
70576;SDS011;58138;43.138;24.702;2022-08-19T12:25:26;6.30;;;4.00;;
70576;SDS011;58138;43.138;24.702;2022-08-19T12:30:43;5.40;;;4.30;;
70576;SDS011;58138;43.138;24.702;2022-08-19T13:03:18;6.95;;;4.30;;
70576;SDS011;58138;43.138;24.702;2022-08-19T13:05:44;7.20;;;4.05;;
70576;SDS011;58138;43.138;24.702;2022-08-19T13:11:50;6.43;;;4.57;;
70576;SDS011;58138;43.138;24.702;2022-08-19T13:30:25;8.77;;;4.13;;
70576;SDS011;58138;43.138;24.702;2022-08-19T13:35:49;4.80;;;3.97;;
70576;SDS011;58138;43.138;24.702;2022-08-19T13:38:18;8.27;;;4.28;;
70576;SDS011;58138;43.138;24.702;2022-08-19T13:43:21;8.38;;;4.20;;
70576;SDS011;58138;43.138;24.702;2022-08-19T13:48:30;4.45;;;3.78;;
70576;SDS011;58138;43.138;24.702;2022-08-19T13:50:58;8.93;;;4.18;;
70576;SDS011;58138;43.138;24.702;2022-08-19T14:47:50;6.13;;;4.22;;
70576;SDS011;58138;43.138;24.702;2022-08-19T15:21:14;8.90;;;4.10;;
70576;SDS011;58138;43.138;24.702;2022-08-19T15:51:12;7.85;;;4.32;;
70576;SDS011;58138;43.138;24.702;2022-08-19T15:53:38;8.45;;;4.13;;
70576;SDS011;58138;43.138;24.702;2022-08-19T15:56:06;12.15;;;4.47;;
70576;SDS011;58138;43.138;24.702;2022-08-19T15:58:35;12.25;;;4.88;;
70576;SDS011;58138;43.138;24.702;2022-08-19T16:01:20;5.85;;;5.10;;
70576;SDS011;58138;43.138;24.702;2022-08-19T16:04:04;7.60;;;4.72;;
70576;SDS011;58138;43.138;24.702;2022-08-19T16:14:34;7.50;;;4.78;;
70576;SDS011;58138;43.138;24.702;2022-08-19T16:24:47;6.90;;;5.10;;
70576;SDS011;58138;43.138;24.702;2022-08-19T16:34:58;9.73;;;5.15;;
70576;SDS011;58138;43.138;24.702;2022-08-19T17:25:24;9.60;;;5.30;;
70576;SDS011;58138;43.138;24.702;2022-08-19T17:40:47;16.17;;;7.22;;
70576;SDS011;58138;43.138;24.702;2022-08-19T17:51:53;11.18;;;7.00;;
70576;SDS011;58138;43.138;24.702;2022-08-19T17:57:04;6.45;;;5.00;;
70576;SDS011;58138;43.138;24.702;2022-08-19T17:59:29;8.10;;;5.38;;
70576;SDS011;58138;43.138;24.702;2022-08-19T18:07:30;13.20;;;7.20;;
70576;SDS011;58138;43.138;24.702;2022-08-19T18:13:03;18.35;;;7.22;;
70576;SDS011;58138;43.138;24.702;2022-08-19T18:23:24;12.95;;;6.93;;
70576;SDS011;58138;43.138;24.702;2022-08-19T18:33:29;17.33;;;7.70;;
70576;SDS011;58138;43.138;24.702;2022-08-19T18:44:09;23.55;;;6.70;;
70576;SDS011;58138;43.138;24.702;2022-08-19T18:46:59;12.48;;;6.47;;
70576;SDS011;58138;43.138;24.702;2022-08-19T18:49:46;11.15;;;8.50;;
70576;SDS011;58138;43.138;24.702;2022-08-19T18:52:15;15.90;;;6.60;;
70576;SDS011;58138;43.138;24.702;2022-08-19T19:02:36;12.57;;;6.60;;
70576;SDS011;58138;43.138;24.702;2022-08-19T19:05:05;13.10;;;6.35;;
70576;SDS011;58138;43.138;24.702;2022-08-19T19:07:36;11.57;;;6.75;;
70576;SDS011;58138;43.138;24.702;2022-08-19T19:59:01;11.45;;;6.80;;
70576;SDS011;58138;43.138;24.702;2022-08-19T20:01:28;13.90;;;6.88;;
70576;SDS011;58138;43.138;24.702;2022-08-19T20:03:55;6.95;;;6.25;;
70576;SDS011;58138;43.138;24.702;2022-08-19T20:06:26;10.32;;;6.13;;
70576;SDS011;58138;43.138;24.702;2022-08-19T20:19:15;12.90;;;6.63;;
70576;SDS011;58138;43.138;24.702;2022-08-19T20:21:43;10.23;;;6.35;;
70576;SDS011;58138;43.138;24.702;2022-08-19T20:24:16;8.77;;;6.40;;
70576;SDS011;58138;43.138;24.702;2022-08-19T20:29:21;10.35;;;6.35;;
70576;SDS011;58138;43.138;24.702;2022-08-19T20:42:10;11.20;;;7.40;;
70576;SDS011;58138;43.138;24.702;2022-08-19T20:54:24;8.35;;;6.68;;
70576;SDS011;58138;43.138;24.702;2022-08-19T20:56:50;9.35;;;6.57;;
70576;SDS011;58138;43.138;24.702;2022-08-19T20:59:16;10.52;;;6.30;;
70576;SDS011;58138;43.138;24.702;2022-08-19T21:01:44;14.63;;;6.47;;
70576;SDS011;58138;43.138;24.702;2022-08-19T21:04:10;10.15;;;6.50;;
70576;SDS011;58138;43.138;24.702;2022-08-19T21:06:35;7.03;;;6.03;;
70576;SDS011;58138;43.138;24.702;2022-08-19T21:09:02;11.05;;;6.43;;
70576;SDS011;58138;43.138;24.702;2022-08-19T21:11:28;9.93;;;6.35;;
70576;SDS011;58138;43.138;24.702;2022-08-19T21:13:55;9.98;;;6.43;;
70576;SDS011;58138;43.138;24.702;2022-08-19T21:16:21;9.88;;;6.45;;
70576;SDS011;58138;43.138;24.702;2022-08-19T21:18:46;9.70;;;6.53;;
70576;SDS011;58138;43.138;24.702;2022-08-19T21:21:12;14.23;;;6.32;;
70576;SDS011;58138;43.138;24.702;2022-08-19T21:23:37;9.75;;;5.97;;
70576;SDS011;58138;43.138;24.702;2022-08-19T21:26:03;9.10;;;6.60;;
70576;SDS011;58138;43.138;24.702;2022-08-19T21:28:29;10.88;;;7.18;;
70576;SDS011;58138;43.138;24.702;2022-08-19T21:30:54;11.00;;;7.43;;
70576;SDS011;58138;43.138;24.702;2022-08-19T21:33:22;6.93;;;6.22;;
70576;SDS011;58138;43.138;24.702;2022-08-19T21:35:48;11.80;;;6.45;;
70576;SDS011;58138;43.138;24.702;2022-08-19T21:38:13;9.90;;;6.97;;
70576;SDS011;58138;43.138;24.702;2022-08-19T21:40:39;13.60;;;7.55;;
70576;SDS011;58138;43.138;24.702;2022-08-19T21:43:04;15.60;;;7.88;;
70576;SDS011;58138;43.138;24.702;2022-08-19T21:45:30;13.55;;;7.35;;
70576;SDS011;58138;43.138;24.702;2022-08-19T21:47:56;11.30;;;7.32;;
70576;SDS011;58138;43.138;24.702;2022-08-19T21:50:22;14.77;;;8.02;;
70576;SDS011;58138;43.138;24.702;2022-08-19T21:52:47;7.25;;;6.53;;
70576;SDS011;58138;43.138;24.702;2022-08-19T21:55:13;9.63;;;6.20;;
70576;SDS011;58138;43.138;24.702;2022-08-19T21:57:39;11.35;;;6.32;;
70576;SDS011;58138;43.138;24.702;2022-08-19T22:00:06;10.02;;;6.53;;
70576;SDS011;58138;43.138;24.702;2022-08-19T22:02:38;8.18;;;6.10;;
70576;SDS011;58138;43.138;24.702;2022-08-19T22:05:04;9.35;;;6.05;;
70576;SDS011;58138;43.138;24.702;2022-08-19T22:07:30;7.60;;;6.07;;
70576;SDS011;58138;43.138;24.702;2022-08-19T22:09:55;6.95;;;6.07;;
70576;SDS011;58138;43.138;24.702;2022-08-19T22:12:22;8.40;;;6.30;;
70576;SDS011;58138;43.138;24.702;2022-08-19T22:14:51;11.55;;;6.57;;
70576;SDS011;58138;43.138;24.702;2022-08-19T22:17:18;9.30;;;6.28;;
70576;SDS011;58138;43.138;24.702;2022-08-19T22:19:43;7.13;;;6.40;;
70576;SDS011;58138;43.138;24.702;2022-08-19T22:22:09;9.23;;;6.38;;
70576;SDS011;58138;43.138;24.702;2022-08-19T22:24:35;8.30;;;6.30;;
70576;SDS011;58138;43.138;24.702;2022-08-19T22:27:01;9.25;;;6.47;;
70576;SDS011;58138;43.138;24.702;2022-08-19T22:29:30;8.52;;;6.50;;
70576;SDS011;58138;43.138;24.702;2022-08-19T22:31:56;8.73;;;6.65;;
70576;SDS011;58138;43.138;24.702;2022-08-19T22:34:21;8.30;;;6.10;;
70576;SDS011;58138;43.138;24.702;2022-08-19T22:36:47;8.95;;;6.47;;
70576;SDS011;58138;43.138;24.702;2022-08-19T22:39:12;10.63;;;6.63;;
70576;SDS011;58138;43.138;24.702;2022-08-19T22:41:38;10.00;;;6.32;;
70576;SDS011;58138;43.138;24.702;2022-08-19T22:44:04;11.95;;;8.82;;
70576;SDS011;58138;43.138;24.702;2022-08-19T22:46:30;13.88;;;8.98;;
70576;SDS011;58138;43.138;24.702;2022-08-19T22:48:57;9.70;;;7.20;;
70576;SDS011;58138;43.138;24.702;2022-08-19T22:51:23;20.77;;;11.18;;
70576;SDS011;58138;43.138;24.702;2022-08-19T22:54:07;19.65;;;12.75;;
70576;SDS011;58138;43.138;24.702;2022-08-19T22:56:33;24.17;;;14.27;;
70576;SDS011;58138;43.138;24.702;2022-08-19T22:58:59;19.95;;;12.50;;
70576;SDS011;58138;43.138;24.702;2022-08-19T23:01:24;20.35;;;11.75;;
70576;SDS011;58138;43.138;24.702;2022-08-19T23:03:50;23.05;;;12.85;;